createdAt,value
2022-08-05T00:00:55.654Z,23.21
2022-08-05T00:03:29.176Z,23.12
2022-08-05T00:06:04.698Z,23.02
2022-08-05T00:08:47.458Z,22.96
2022-08-05T00:11:20.622Z,22.91
2022-08-05T00:13:55.661Z,22.86
2022-08-05T00:16:35.953Z,22.83
2022-08-05T00:19:07.828Z,22.79
2022-08-05T00:21:35.662Z,22.76
2022-08-05T00:24:10.177Z,22.71
2022-08-05T00:26:38.917Z,22.68
2022-08-05T00:29:14.409Z,22.64
2022-08-05T00:32:10.216Z,22.61
2022-08-05T00:34:56.409Z,22.56
2022-08-05T00:37:17.399Z,22.54
2022-08-05T00:39:57.973Z,22.51
2022-08-05T00:42:31.758Z,22.51
2022-08-05T00:45:00.006Z,22.50
2022-08-05T00:47:27.810Z,22.49
2022-08-05T00:50:15.368Z,22.46
2022-08-05T00:52:45.476Z,22.43
2022-08-05T00:55:15.048Z,22.37
2022-08-05T00:57:57.879Z,22.34
2022-08-05T01:00:26.660Z,22.29
2022-08-05T01:02:55.319Z,22.25
2022-08-05T01:05:23.609Z,22.22
2022-08-05T01:08:42.276Z,22.19
2022-08-05T01:10:40.569Z,22.17
2022-08-05T01:13:22.443Z,22.12
2022-08-05T01:15:55.287Z,22.06
2022-08-05T01:18:27.472Z,22.02
2022-08-05T01:20:55.197Z,21.94
2022-08-05T01:23:24.732Z,21.88
2022-08-05T01:26:02.597Z,21.83
2022-08-05T01:28:30.335Z,21.77
2022-08-05T01:30:58.056Z,21.75
2022-08-05T01:33:26.218Z,21.71
2022-08-05T01:35:54.028Z,21.67
2022-08-05T01:38:29.033Z,21.63
2022-08-05T01:40:57.441Z,21.60
2022-08-05T01:43:25.173Z,21.58
2022-08-05T01:45:56.514Z,21.56
2022-08-05T01:48:25.208Z,21.57
2022-08-05T01:50:52.928Z,21.56
2022-08-05T01:53:55.139Z,21.54
2022-08-05T01:56:09.354Z,21.52
2022-08-05T01:58:40.673Z,21.50
2022-08-05T02:01:12.479Z,21.47
2022-08-05T02:03:40.314Z,21.44
2022-08-05T02:06:33.576Z,21.39
2022-08-05T02:08:58.907Z,21.33
2022-08-05T02:11:33.810Z,21.30
2022-08-05T02:14:01.808Z,21.27
2022-08-05T02:16:29.474Z,21.26
2022-08-05T02:18:57.656Z,21.25
2022-08-05T02:21:25.384Z,21.23
2022-08-05T02:23:53.280Z,21.20
2022-08-05T02:26:20.979Z,21.20
2022-08-05T02:28:49.897Z,21.21
2022-08-05T02:31:21.237Z,21.24
2022-08-05T02:33:49.480Z,21.26
2022-08-05T02:36:27.517Z,21.30
2022-08-05T02:38:55.983Z,21.36
2022-08-05T02:41:29.010Z,21.41
2022-08-05T02:44:06.943Z,21.44
2022-08-05T02:46:44.045Z,21.43
2022-08-05T02:49:26.520Z,21.40
2022-08-05T02:52:03.620Z,21.35
2022-08-05T02:54:36.414Z,21.33
2022-08-05T02:57:10.159Z,21.31
2022-08-05T02:59:54.231Z,21.32
2022-08-05T03:02:21.950Z,21.32
2022-08-05T03:04:53.355Z,21.33
2022-08-05T03:07:40.677Z,21.39
2022-08-05T03:10:08.706Z,21.44
2022-08-05T03:12:36.838Z,21.44
2022-08-05T03:15:04.529Z,21.43
2022-08-05T03:17:34.630Z,21.43
2022-08-05T03:20:10.095Z,21.40
2022-08-05T03:22:38.096Z,21.33
2022-08-05T03:25:33.533Z,21.24
2022-08-05T03:28:00.609Z,21.17
2022-08-05T03:30:28.710Z,21.12
2022-08-05T03:33:02.484Z,21.07
2022-08-05T03:35:33.837Z,21.04
2022-08-05T03:38:01.757Z,20.84
2022-08-05T03:40:31.928Z,20.67
2022-08-05T03:43:01.478Z,20.55
2022-08-05T03:45:58.170Z,20.43
2022-08-05T03:48:26.979Z,20.34
2022-08-05T03:50:59.152Z,20.26
2022-08-05T03:55:53.544Z,20.16
2022-08-05T03:56:35.187Z,20.18
2022-08-05T03:59:03.594Z,20.21
2022-08-05T04:01:33.535Z,20.19
2022-08-05T04:04:09.072Z,20.23
2022-08-05T04:06:38.104Z,20.24
2022-08-05T04:09:07.198Z,20.24
2022-08-05T04:11:47.304Z,20.22
2022-08-05T04:14:18.304Z,20.18
2022-08-05T04:16:45.939Z,20.13
2022-08-05T04:19:14.108Z,20.09
2022-08-05T04:22:09.848Z,20.04
2022-08-05T04:24:29.434Z,19.93
2022-08-05T04:26:58.121Z,19.88
2022-08-05T04:29:27.282Z,19.85
2022-08-05T04:31:56.760Z,19.75
2022-08-05T04:34:33.836Z,19.73
2022-08-05T04:37:03.175Z,19.76
2022-08-05T04:39:31.314Z,19.73
2022-08-05T04:41:59.871Z,19.69
2022-08-05T04:44:29.598Z,19.72
2022-08-05T04:46:58.442Z,19.75
2022-08-05T04:49:38.465Z,19.77
2022-08-05T04:52:16.489Z,19.78
2022-08-05T04:54:44.143Z,19.81
2022-08-05T04:57:12.253Z,19.85
2022-08-05T04:59:40.814Z,19.87
2022-08-05T05:02:41.270Z,19.89
2022-08-05T05:05:02.706Z,19.93
2022-08-05T05:07:32.787Z,19.95
2022-08-05T05:10:06.612Z,19.97
2022-08-05T05:12:34.369Z,20.02
2022-08-05T05:15:04.599Z,20.07
2022-08-05T05:17:56.334Z,20.13
2022-08-05T05:20:20.357Z,20.18
2022-08-05T05:22:48.205Z,20.25
2022-08-05T05:25:17.344Z,20.26
2022-08-05T05:27:53.526Z,20.30
2022-08-05T05:30:29.702Z,20.37
2022-08-05T05:33:00.172Z,20.39
2022-08-05T05:35:29.121Z,20.44
2022-08-05T05:38:03.441Z,20.48
2022-08-05T05:40:33.386Z,20.49
2022-08-05T05:43:02.332Z,20.47
2022-08-05T05:45:29.936Z,20.49
2022-08-05T05:48:06.677Z,20.52
2022-08-05T05:50:44.256Z,20.52
2022-08-05T05:53:22.007Z,20.49
2022-08-05T05:55:52.077Z,20.47
2022-08-05T05:58:31.893Z,20.45
2022-08-05T06:01:12.397Z,20.46
2022-08-05T06:04:00.352Z,20.50
2022-08-05T06:06:31.386Z,20.57
2022-08-05T06:09:03.926Z,20.65
2022-08-05T06:11:31.731Z,20.74
2022-08-05T06:14:00.315Z,20.80
2022-08-05T06:16:32.711Z,20.81
2022-08-05T06:19:05.830Z,20.81
2022-08-05T06:21:37.237Z,20.84
2022-08-05T06:24:06.010Z,20.86
2022-08-05T06:26:36.047Z,20.94
2022-08-05T06:29:23.622Z,21.00
2022-08-05T06:31:51.464Z,21.01
2022-08-05T06:34:19.964Z,21.01
2022-08-05T06:36:57.967Z,20.97
2022-08-05T06:39:26.824Z,20.96
2022-08-05T06:41:56.542Z,20.98
2022-08-05T06:44:26.450Z,21.01
2022-08-05T06:46:54.363Z,21.05
2022-08-05T06:50:01.336Z,21.08
2022-08-05T06:52:37.780Z,21.11
2022-08-05T06:54:58.476Z,21.15
2022-08-05T06:58:03.916Z,21.15
2022-08-05T07:00:14.183Z,21.08
2022-08-05T07:02:53.983Z,20.98
2022-08-05T07:05:31.885Z,20.92
2022-08-05T07:08:05.234Z,20.91
2022-08-05T07:10:32.985Z,20.91
2022-08-05T07:13:52.462Z,20.93
2022-08-05T07:17:59.948Z,20.92
2022-08-05T07:19:11.221Z,20.83
2022-08-05T07:22:00.547Z,20.77
2022-08-05T07:24:29.998Z,20.72
2022-08-05T07:26:58.080Z,20.66
2022-08-05T07:30:27.725Z,20.60
2022-08-05T07:32:14.663Z,20.62
2022-08-05T07:34:42.609Z,20.57
2022-08-05T07:37:11.690Z,20.54
2022-08-05T07:40:04.556Z,20.53
2022-08-05T07:42:31.857Z,20.47
2022-08-05T07:45:01.902Z,20.46
2022-08-05T07:47:31.156Z,20.41
2022-08-05T07:50:09.835Z,20.38
2022-08-05T07:52:37.588Z,20.37
2022-08-05T07:55:15.842Z,20.36
2022-08-05T07:58:02.166Z,20.37
2022-08-05T08:00:30.931Z,20.36
2022-08-05T08:03:13.600Z,20.30
2022-08-05T08:05:49.279Z,20.25
2022-08-05T08:08:20.006Z,20.22
2022-08-05T08:10:48.724Z,20.17
2022-08-05T08:13:22.100Z,20.12
2022-08-05T08:16:35.878Z,20.08
2022-08-05T08:18:50.228Z,20.06
2022-08-05T08:21:18.438Z,20.02
2022-08-05T08:24:03.164Z,20.02
2022-08-05T08:26:32.795Z,19.98
2022-08-05T08:29:02.285Z,19.95
2022-08-05T08:31:48.318Z,19.88
2022-08-05T08:34:16.212Z,19.87
2022-08-05T08:36:52.510Z,19.83
2022-08-05T08:39:23.665Z,19.80
2022-08-05T08:42:00.093Z,19.81
2022-08-05T08:45:19.918Z,19.84
2022-08-05T08:47:21.975Z,19.79
2022-08-05T08:50:30.348Z,19.75
2022-08-05T08:52:53.756Z,19.69
2022-08-05T08:56:01.952Z,19.65
2022-08-05T08:58:09.922Z,19.58
2022-08-05T09:00:41.198Z,19.50
2022-08-05T09:03:09.428Z,19.47
2022-08-05T09:05:38.282Z,19.44
2022-08-05T09:08:27.386Z,19.42
2022-08-05T09:10:57.839Z,19.41
2022-08-05T09:13:25.559Z,19.37
2022-08-05T09:15:59.944Z,19.36
2022-08-05T09:18:27.915Z,19.34
2022-08-05T09:20:57.559Z,19.32
2022-08-05T09:23:27.185Z,19.25
2022-08-05T09:26:02.418Z,19.19
2022-08-05T09:28:33.634Z,19.18
2022-08-05T09:31:22.408Z,19.13
2022-08-05T09:33:52.464Z,19.12
2022-08-05T09:36:21.405Z,19.11
2022-08-05T09:38:56.022Z,19.14
2022-08-05T09:41:24.848Z,19.16
2022-08-05T09:43:53.563Z,19.21
2022-08-05T09:46:22.795Z,19.20
2022-08-05T09:49:07.990Z,19.14
2022-08-05T09:51:44.040Z,19.12
2022-08-05T09:54:16.771Z,19.17
2022-08-05T09:56:57.529Z,19.22
2022-08-05T09:59:27.619Z,19.26
2022-08-05T10:01:58.172Z,19.29
2022-08-05T10:04:29.341Z,19.35
2022-08-05T10:06:59.590Z,19.44
2022-08-05T10:09:30.148Z,19.50
2022-08-05T10:12:30.352Z,19.53
2022-08-05T10:15:01.435Z,19.62
2022-08-05T10:17:37.680Z,19.66
2022-08-05T10:20:09.963Z,19.72
2022-08-05T10:22:42.795Z,19.72
2022-08-05T10:25:16.435Z,19.69
2022-08-05T10:28:16.819Z,19.69
2022-08-05T10:31:20.122Z,19.67
2022-08-05T10:33:20.024Z,19.62
2022-08-05T10:35:59.264Z,19.56
2022-08-05T10:38:27.920Z,19.52
2022-08-05T10:40:58.197Z,19.52
2022-08-05T10:43:31.058Z,19.50
2022-08-05T10:46:06.726Z,19.49
2022-08-05T10:48:40.663Z,19.50
2022-08-05T10:51:23.170Z,19.50
2022-08-05T10:53:58.586Z,19.54
2022-08-05T10:56:29.291Z,19.60
2022-08-05T10:58:58.052Z,19.66
2022-08-05T11:02:02.848Z,19.74
2022-08-05T11:04:22.724Z,19.78
2022-08-05T11:06:54.047Z,19.79
2022-08-05T11:09:31.950Z,19.81
2022-08-05T11:12:06.866Z,19.80
2022-08-05T11:15:01.569Z,19.83
2022-08-05T11:17:59.992Z,19.80
2022-08-05T11:20:17.295Z,19.82
2022-08-05T11:22:49.878Z,19.82
2022-08-05T11:26:05.098Z,19.88
2022-08-05T11:28:09.274Z,19.92
2022-08-05T11:30:44.853Z,19.93
2022-08-05T11:33:21.462Z,19.94
2022-08-05T11:36:07.433Z,19.96
2022-08-05T11:38:45.218Z,19.96
2022-08-05T11:41:54.811Z,19.98
2022-08-05T11:44:07.109Z,20.06
2022-08-05T11:46:35.912Z,20.22
2022-08-05T11:49:03.981Z,20.34
2022-08-05T11:51:44.725Z,20.47
2022-08-05T11:54:18.084Z,20.59
2022-08-05T11:56:50.045Z,20.70
2022-08-05T11:59:21.305Z,20.77
2022-08-05T12:01:49.205Z,20.93
2022-08-05T12:04:20.148Z,21.08
2022-08-05T12:06:50.056Z,21.34
2022-08-05T12:09:20.241Z,21.72
2022-08-05T12:11:47.990Z,22.16
2022-08-05T12:14:18.461Z,22.62
2022-08-05T12:16:47.462Z,23.55
2022-08-05T12:20:16.861Z,24.62
2022-08-05T12:22:03.169Z,25.32
2022-08-05T12:24:30.887Z,25.47
2022-08-05T12:26:59.091Z,25.62
2022-08-05T12:29:38.052Z,25.79
2022-08-05T12:32:07.526Z,26.05
2022-08-05T12:34:37.304Z,26.82
2022-08-05T12:37:17.222Z,27.88
2022-08-05T12:39:51.178Z,28.99
2022-08-05T12:42:19.370Z,29.66
2022-08-05T12:44:47.814Z,30.36
2022-08-05T12:47:17.172Z,30.73
2022-08-05T12:50:04.463Z,30.74
2022-08-05T12:52:39.702Z,30.58
2022-08-05T12:55:10.477Z,30.92
2022-08-05T12:58:49.098Z,30.99
2022-08-05T13:02:03.019Z,30.17
2022-08-05T13:03:14.830Z,29.20
2022-08-05T13:05:42.992Z,28.69
2022-08-05T13:08:10.731Z,28.75
2022-08-05T13:10:50.229Z,28.52
2022-08-05T13:14:07.347Z,28.32
2022-08-05T13:16:06.167Z,28.43
2022-08-05T13:18:38.660Z,28.65
2022-08-05T13:21:06.346Z,28.76
2022-08-05T13:23:34.029Z,28.54
2022-08-05T13:26:03.693Z,27.90
2022-08-05T13:28:32.341Z,27.81
2022-08-05T13:31:10.922Z,28.04
2022-08-05T13:34:20.233Z,28.30
2022-08-05T13:36:31.790Z,28.45
2022-08-05T13:38:59.484Z,28.22
2022-08-05T13:41:35.943Z,27.94
2022-08-05T13:44:05.359Z,27.38
2022-08-05T13:46:50.641Z,26.73
2022-08-05T13:49:21.544Z,26.01
2022-08-05T13:51:49.274Z,25.44
2022-08-05T13:54:21.233Z,25.01
2022-08-05T13:56:53.176Z,24.64
2022-08-05T13:59:23.990Z,24.40
2022-08-05T14:01:57.892Z,24.36
2022-08-05T14:04:49.935Z,24.45
2022-08-05T14:07:55.363Z,25.29
2022-08-05T14:10:08.384Z,26.17
2022-08-05T14:12:36.377Z,26.67
2022-08-05T14:16:05.474Z,26.98
2022-08-05T14:17:54.967Z,27.35
2022-08-05T14:20:27.215Z,27.75
2022-08-05T14:22:55.252Z,28.01
2022-08-05T14:25:28.132Z,28.13
2022-08-05T14:27:56.253Z,27.88
2022-08-05T14:30:28.087Z,27.39
2022-08-05T14:32:56.931Z,26.97
2022-08-05T14:35:36.151Z,26.72
2022-08-05T14:38:33.333Z,26.42
2022-08-05T14:41:00.562Z,26.07
2022-08-05T14:43:59.451Z,25.69
2022-08-05T14:46:16.016Z,25.28
2022-08-05T14:48:43.958Z,24.87
2022-08-05T14:51:17.689Z,24.46
2022-08-05T14:53:45.554Z,24.14
2022-08-05T14:56:34.084Z,23.81
2022-08-05T14:59:05.732Z,23.51
2022-08-05T15:01:48.486Z,23.23
2022-08-05T15:04:17.264Z,23.02
2022-08-05T15:06:48.983Z,22.85
2022-08-05T15:09:51.054Z,22.76
2022-08-05T15:12:05.021Z,22.67
2022-08-05T15:14:36.896Z,22.64
2022-08-05T15:17:47.674Z,22.67
2022-08-05T15:20:04.477Z,22.67
2022-08-05T15:22:32.141Z,22.71
2022-08-05T15:25:00.425Z,22.76
2022-08-05T15:27:39.802Z,22.75
2022-08-05T15:30:10.989Z,22.77
2022-08-05T15:32:42.428Z,22.77
2022-08-05T15:35:12.619Z,22.75
2022-08-05T15:38:32.797Z,22.75
2022-08-05T15:41:00.573Z,22.76
2022-08-05T15:43:20.066Z,22.75
2022-08-05T15:46:00.718Z,22.73
2022-08-05T15:48:29.140Z,22.73
2022-08-05T15:50:56.876Z,22.78
2022-08-05T15:53:26.390Z,22.82
2022-08-05T15:56:01.380Z,23.03
2022-08-05T15:58:36.880Z,23.29
2022-08-05T16:01:17.111Z,23.51
2022-08-05T16:03:48.548Z,23.64
2022-08-05T16:06:20.238Z,23.73
2022-08-05T16:08:50.317Z,23.77
2022-08-05T16:11:39.988Z,23.82
2022-08-05T16:14:09.292Z,23.98
2022-08-05T16:16:37.303Z,24.32
2022-08-05T16:19:04.949Z,25.12
2022-08-05T16:22:00.834Z,25.26
2022-08-05T16:24:39.536Z,25.71
2022-08-05T16:27:07.985Z,25.48
2022-08-05T16:29:37.312Z,25.16
2022-08-05T16:32:05.557Z,24.81
2022-08-05T16:34:33.310Z,24.54
2022-08-05T16:37:01.070Z,24.48
2022-08-05T16:40:05.014Z,25.19
2022-08-05T16:42:27.701Z,25.57
2022-08-05T16:44:57.087Z,25.29
2022-08-05T16:47:35.866Z,24.91
2022-08-05T16:50:04.486Z,24.59
2022-08-05T16:52:33.341Z,24.45
2022-08-05T16:55:01.434Z,24.30
2022-08-05T16:57:48.609Z,24.13
2022-08-05T17:00:33.984Z,23.97
2022-08-05T17:03:02.815Z,23.75
2022-08-05T17:05:31.576Z,23.55
2022-08-05T17:07:59.730Z,23.33
2022-08-05T17:10:30.513Z,23.13
2022-08-05T17:12:58.490Z,22.94
2022-08-05T17:15:29.505Z,22.79
2022-08-05T17:18:14.073Z,22.73
2022-08-05T17:20:42.529Z,22.75
2022-08-05T17:24:03.122Z,22.76
2022-08-05T17:25:59.661Z,22.73
2022-08-05T17:28:29.943Z,22.72
2022-08-05T17:30:57.597Z,22.72
2022-08-05T17:33:26.215Z,22.73
2022-08-05T17:36:07.275Z,22.72
2022-08-05T17:38:39.923Z,22.69
2022-08-05T17:41:22.738Z,22.60
2022-08-05T17:43:55.455Z,22.48
2022-08-05T17:46:23.869Z,22.38
2022-08-05T17:48:52.524Z,22.29
2022-08-05T17:51:21.587Z,22.17
2022-08-05T17:53:50.769Z,22.06
2022-08-05T17:56:22.797Z,21.93
2022-08-05T17:58:51.234Z,21.82
2022-08-05T18:01:20.014Z,21.71
2022-08-05T18:03:59.683Z,21.59
2022-08-05T18:06:32.494Z,21.50
2022-08-05T18:09:03.636Z,21.41
2022-08-05T18:11:33.371Z,21.31
2022-08-05T18:14:03.422Z,21.24
2022-08-05T18:16:31.715Z,21.15
2022-08-05T18:18:59.761Z,21.11
2022-08-05T18:21:28.227Z,21.11
2022-08-05T18:24:15.231Z,21.08
2022-08-05T18:26:43.778Z,21.04
2022-08-05T18:29:11.756Z,21.01
2022-08-05T18:31:43.165Z,20.98
2022-08-05T18:34:12.227Z,20.94
2022-08-05T18:36:41.245Z,20.88
2022-08-05T18:39:42.010Z,20.78
2022-08-05T18:42:05.053Z,20.70
2022-08-05T18:44:49.153Z,20.61
2022-08-05T18:47:26.843Z,20.51
2022-08-05T18:50:12.394Z,20.41
2022-08-05T18:52:51.348Z,20.31
2022-08-05T18:55:19.519Z,20.23
2022-08-05T18:57:53.388Z,20.18
2022-08-05T19:00:29.235Z,20.11
2022-08-05T19:03:04.041Z,20.04
2022-08-05T19:06:13.455Z,19.96
2022-08-05T19:08:19.961Z,19.92
2022-08-05T19:10:49.521Z,19.84
2022-08-05T19:13:17.142Z,19.73
2022-08-05T19:15:59.270Z,19.66
2022-08-05T19:18:28.848Z,19.59
2022-08-05T19:20:56.858Z,19.51
2022-08-05T19:24:08.058Z,19.43
2022-08-05T19:26:12.788Z,19.36
2022-08-05T19:28:42.297Z,19.29
2022-08-05T19:31:13.196Z,19.22
2022-08-05T19:33:48.676Z,19.15
2022-08-05T19:36:23.880Z,19.08
2022-08-05T19:38:52.369Z,19.04
2022-08-05T19:41:22.084Z,19.01
2022-08-05T19:44:13.010Z,18.98
2022-08-05T19:46:43.646Z,18.93
2022-08-05T19:49:12.440Z,18.86
2022-08-05T19:52:05.760Z,18.78
2022-08-05T19:54:34.150Z,18.70
2022-08-05T19:57:07.638Z,18.63
2022-08-05T19:59:55.578Z,18.56
2022-08-05T20:02:26.125Z,18.46
2022-08-05T20:04:55.557Z,18.40
2022-08-05T20:07:39.004Z,18.31
2022-08-05T20:10:14.746Z,18.22
2022-08-05T20:12:47.728Z,18.14
2022-08-05T20:15:47.761Z,18.09
2022-08-05T20:18:10.320Z,18.01
2022-08-05T20:20:55.201Z,17.94
2022-08-05T20:23:23.862Z,17.90
2022-08-05T20:26:08.484Z,17.84
2022-08-05T20:28:44.314Z,17.79
2022-08-05T20:31:12.758Z,17.74
2022-08-05T20:33:42.504Z,17.72
2022-08-05T20:36:11.264Z,17.67
2022-08-05T20:38:40.878Z,17.64
2022-08-05T20:41:27.201Z,17.59
2022-08-05T20:44:18.397Z,17.52
2022-08-05T20:46:47.590Z,17.47
2022-08-05T20:49:24.062Z,17.42
2022-08-05T20:51:53.807Z,17.33
2022-08-05T20:54:21.827Z,17.24
2022-08-05T20:56:49.789Z,17.13
2022-08-05T20:59:26.195Z,17.02
2022-08-05T21:01:57.133Z,16.92
2022-08-05T21:04:27.097Z,16.82
2022-08-05T21:06:54.968Z,16.76
2022-08-05T21:09:23.475Z,16.71
2022-08-05T21:12:09.615Z,16.66
2022-08-05T21:14:38.993Z,16.61
2022-08-05T21:17:06.780Z,16.58
2022-08-05T21:19:47.554Z,16.54
2022-08-05T21:22:17.624Z,16.50
2022-08-05T21:24:49.043Z,16.46
2022-08-05T21:27:20.686Z,16.43
2022-08-05T21:29:55.369Z,16.40
2022-08-05T21:32:23.393Z,16.38
2022-08-05T21:34:56.016Z,16.34
2022-08-05T21:37:41.443Z,16.33
2022-08-05T21:40:13.701Z,16.32
2022-08-05T21:42:45.086Z,16.34
2022-08-05T21:45:24.831Z,16.36
2022-08-05T21:47:56.288Z,16.38
2022-08-05T21:50:25.505Z,16.36
2022-08-05T21:52:53.522Z,16.30
2022-08-05T21:55:42.849Z,16.28
2022-08-05T21:58:10.422Z,16.23
2022-08-05T22:00:40.152Z,16.18
2022-08-05T22:03:09.756Z,16.15
2022-08-05T22:05:48.114Z,16.14
2022-08-05T22:08:22.559Z,16.11
2022-08-05T22:10:53.226Z,16.08
2022-08-05T22:14:34.612Z,16.05
2022-08-05T22:16:39.123Z,16.02
2022-08-05T22:18:58.527Z,15.97
2022-08-05T22:21:26.632Z,15.93
2022-08-05T22:24:13.445Z,15.90
2022-08-05T22:27:17.382Z,15.89
2022-08-05T22:29:45.949Z,15.88
2022-08-05T22:32:17.495Z,15.87
2022-08-05T22:34:45.847Z,15.86
2022-08-05T22:37:13.638Z,15.86
2022-08-05T22:39:41.403Z,15.88
2022-08-05T22:42:12.695Z,15.89
2022-08-05T22:44:48.466Z,15.90
2022-08-05T22:47:29.385Z,15.92
2022-08-05T22:50:17.893Z,15.95
2022-08-05T22:52:46.298Z,15.96
2022-08-05T22:55:19.346Z,15.93
2022-08-05T22:57:49.081Z,15.93
2022-08-05T23:00:17.965Z,15.92
2022-08-05T23:02:48.908Z,15.92
2022-08-05T23:05:17.101Z,15.95
2022-08-05T23:07:48.849Z,15.98
2022-08-05T23:10:19.566Z,16.01
2022-08-05T23:12:48.146Z,15.97
2022-08-05T23:15:19.392Z,15.96
2022-08-05T23:18:01.726Z,15.92
2022-08-05T23:20:30.229Z,15.88
2022-08-05T23:22:58.764Z,15.84
2022-08-05T23:25:51.689Z,15.78
2022-08-05T23:28:15.999Z,15.68
2022-08-05T23:30:53.798Z,15.60
2022-08-05T23:33:26.203Z,15.51
2022-08-05T23:36:10.446Z,15.44
2022-08-05T23:38:38.863Z,15.36
2022-08-05T23:41:06.477Z,15.30
2022-08-05T23:44:05.474Z,15.25
2022-08-05T23:46:22.615Z,15.23
2022-08-05T23:48:59.795Z,15.21
2022-08-05T23:51:52.461Z,15.22
2022-08-05T23:54:25.716Z,15.20
2022-08-05T23:56:54.456Z,15.21
2022-08-05T23:59:22.701Z,15.22
